Fortunia — V2OG3 — position and weather

sailwx.info

Track history (hours):
 
Tides and Currents Weather Stations Pressure Air Temp Water Temp Dewpoint Dewpoint Depression Visibility Wind Speed Wind Dir Waves Ship Positions

Fortunia

Last reported at 2015-Feb-27 12:08 UTC. Time now 2015-Feb-28 02:04 UTC.
Position N 38°20' E 002°36'.

Length 121 m; draft 6.5 m.

Type: Ship. MMSI: 304010638.

Date/timePositionNaut miles runAvg speedWind from/ knotsBaromVisibWave heightAir tempDewpointWater temp
2015-Feb-27 12:08N 38°20' E 002°36'2011.2
2015-Feb-27 10:22N 38°39' E 002°29'910.7
2015-Feb-27 09:31N 38°48' E 002°26'1010.7
2015-Feb-27 08:33N 38°58' E 002°22'1110.8
2015-Feb-27 07:33N 39°08' E 002°19'1110.8
2015-Feb-27 06:33N 39°18' E 002°15'1110.9
2015-Feb-27 05:33N 39°29' E 002°12'1110.7
2015-Feb-27 04:33N 39°40' E 002°11'1010.5
2015-Feb-27 03:33N 39°50' E 002°10'1110.6
2015-Feb-27 02:33N 40°01' E 002°11'1110.6
2015-Feb-27 01:33N 40°11' E 002°10'1110.7
2015-Feb-27 00:33N 40°22' E 002°10'1110.5
2015-Feb-26 23:33N 40°32' E 002°11'1010.1
2015-Feb-26 22:33N 40°42' E 002°10'1010.4
2015-Feb-26 21:33N 40°53' E 002°10'1010.2
2015-Feb-26 20:33N 41°03' E 002°10'1110.5
2015-Feb-26 19:33N 41°14' E 002°10'7 5.1
2015-Feb-26 18:04N 41°21' E 002°10'0 0.1
2015-Feb-26 17:28N 41°21' E 002°10'0 0.0
2015-Feb-26 16:28N 41°21' E 002°10'0 0.0
2015-Feb-26 15:12N 41°21' E 002°10'0 0.0
2015-Feb-26 12:03N 41°21' E 002°10'4 5.0
2015-Feb-26 11:13N 41°17' E 002°11'6 8.9
2015-Feb-26 10:33N 41°12' E 002°08'1010.3
2015-Feb-26 09:33N 41°03' E 002°01'1010.3
2015-Feb-26 08:33N 40°53' E 001°55'1111.1
2015-Feb-26 07:33N 40°43' E 001°49'1111.1
2015-Feb-26 06:33N 40°34' E 001°42'1010.2
2015-Feb-26 05:33N 40°24' E 001°36'1110.7
2015-Feb-26 04:33N 40°15' E 001°30'1110.6
2015-Feb-26 03:33N 40°06' E 001°23'1010.4
2015-Feb-26 02:33N 39°56' E 001°17'1010.1
2015-Feb-26 01:33N 39°47' E 001°11'1210.3
2015-Feb-26 00:21N 39°36' E 001°03'910.6
2015-Feb-25 23:31N 39°29' E 000°58'1010.5
2015-Feb-25 22:33N 39°19' E 000°53'10410.1
2015-Feb-25 12:18N 37°50' W 000°16'7 9.6
2015-Feb-25 11:33N 37°44' W 000°21'10 9.7
2015-Feb-25 10:33N 37°36' W 000°28'9 9.2
2015-Feb-25 09:34N 37°31' W 000°37'10 9.9
2015-Feb-25 08:33N 37°31' W 000°50'8 8.1
2015-Feb-25 07:30N 37°35' W 000°59'0 0.0
2015-Feb-24 20:32N 37°36' W 000°59'5 5.6
2015-Feb-24 19:33N 37°31' W 000°54'1211.6
2015-Feb-24 18:33N 37°29' W 000°40'1111.3
2015-Feb-24 17:33N 37°27' W 000°26'1111.3
2015-Feb-24 16:33N 37°24' W 000°12'  
2015-Feb-22 02:27N 51°56' E 004°13'  
2015-Feb-18 20:30N 38°28' E 000°58'8110.1
2015-Feb-18 12:25N 39°25' W 000°17'3 3.2
2015-Feb-18 11:31N 39°27' W 000°19'0 0.0
2015-Feb-18 10:33N 39°27' W 000°19'0 0.0
2015-Feb-18 09:30N 39°27' W 000°19'0 0.1
2015-Feb-18 08:32N 39°27' W 000°19'0 0.0
2015-Feb-18 07:31N 39°27' W 000°19'0 0.0
2015-Feb-18 06:33N 39°27' W 000°19'5 4.9
2015-Feb-18 05:33N 39°28' W 000°13'9111.4
2015-Feb-17 21:33N 40°31' E 001°13'1211.6
2015-Feb-17 20:33N 40°39' E 001°24'1111.3
2015-Feb-17 19:33N 40°47' E 001°35'3811.3
2015-Feb-17 16:13N 41°15' E 002°09'4 5.5
2015-Feb-17 15:31N 41°19' E 002°09'  
Track history (hours):
 
Tides and Currents Weather Stations Pressure Air Temp Water Temp Dewpoint Dewpoint Depression Visibility Wind Speed Wind Dir Waves Ship Positions

Fortunia

Last reported at 2015-Feb-27 12:08 UTC. Time now 2015-Feb-28 02:04 UTC.
Position N 38°20' E 002°36'.

Length 121 m; draft 6.5 m.

Type: Ship. MMSI: 304010638.

Date/timePositionNaut miles runAvg speedWind from/ knotsBaromVisibWave heightAir tempDewpointWater temp
2015-Feb-27 12:08N 38°20' E 002°36'2011.2
2015-Feb-27 10:22N 38°39' E 002°29'910.7
2015-Feb-27 09:31N 38°48' E 002°26'1010.7
2015-Feb-27 08:33N 38°58' E 002°22'1110.8
2015-Feb-27 07:33N 39°08' E 002°19'1110.8
2015-Feb-27 06:33N 39°18' E 002°15'1110.9
2015-Feb-27 05:33N 39°29' E 002°12'1110.7
2015-Feb-27 04:33N 39°40' E 002°11'1010.5
2015-Feb-27 03:33N 39°50' E 002°10'1110.6
2015-Feb-27 02:33N 40°01' E 002°11'1110.6
2015-Feb-27 01:33N 40°11' E 002°10'1110.7
2015-Feb-27 00:33N 40°22' E 002°10'1110.5
2015-Feb-26 23:33N 40°32' E 002°11'1010.1
2015-Feb-26 22:33N 40°42' E 002°10'1010.4
2015-Feb-26 21:33N 40°53' E 002°10'1010.2
2015-Feb-26 20:33N 41°03' E 002°10'1110.5
2015-Feb-26 19:33N 41°14' E 002°10'7 5.1
2015-Feb-26 18:04N 41°21' E 002°10'0 0.1
2015-Feb-26 17:28N 41°21' E 002°10'0 0.0
2015-Feb-26 16:28N 41°21' E 002°10'0 0.0
2015-Feb-26 15:12N 41°21' E 002°10'0 0.0
2015-Feb-26 12:03N 41°21' E 002°10'4 5.0
2015-Feb-26 11:13N 41°17' E 002°11'6 8.9
2015-Feb-26 10:33N 41°12' E 002°08'1010.3
2015-Feb-26 09:33N 41°03' E 002°01'1010.3
2015-Feb-26 08:33N 40°53' E 001°55'1111.1
2015-Feb-26 07:33N 40°43' E 001°49'1111.1
2015-Feb-26 06:33N 40°34' E 001°42'1010.2
2015-Feb-26 05:33N 40°24' E 001°36'1110.7
2015-Feb-26 04:33N 40°15' E 001°30'1110.6
2015-Feb-26 03:33N 40°06' E 001°23'1010.4
2015-Feb-26 02:33N 39°56' E 001°17'1010.1
2015-Feb-26 01:33N 39°47' E 001°11'1210.3
2015-Feb-26 00:21N 39°36' E 001°03'910.6
2015-Feb-25 23:31N 39°29' E 000°58'1010.5
2015-Feb-25 22:33N 39°19' E 000°53'10410.1
2015-Feb-25 12:18N 37°50' W 000°16'7 9.6
2015-Feb-25 11:33N 37°44' W 000°21'10 9.7
2015-Feb-25 10:33N 37°36' W 000°28'9 9.2
2015-Feb-25 09:34N 37°31' W 000°37'10 9.9
2015-Feb-25 08:33N 37°31' W 000°50'8 8.1
2015-Feb-25 07:30N 37°35' W 000°59'0 0.0
2015-Feb-24 20:32N 37°36' W 000°59'5 5.6
2015-Feb-24 19:33N 37°31' W 000°54'1211.6
2015-Feb-24 18:33N 37°29' W 000°40'1111.3
2015-Feb-24 17:33N 37°27' W 000°26'1111.3
2015-Feb-24 16:33N 37°24' W 000°12'  
2015-Feb-22 02:27N 51°56' E 004°13'  
2015-Feb-18 20:30N 38°28' E 000°58'8110.1
2015-Feb-18 12:25N 39°25' W 000°17'3 3.2
2015-Feb-18 11:31N 39°27' W 000°19'0 0.0
2015-Feb-18 10:33N 39°27' W 000°19'0 0.0
2015-Feb-18 09:30N 39°27' W 000°19'0 0.1
2015-Feb-18 08:32N 39°27' W 000°19'0 0.0
2015-Feb-18 07:31N 39°27' W 000°19'0 0.0
2015-Feb-18 06:33N 39°27' W 000°19'5 4.9
2015-Feb-18 05:33N 39°28' W 000°13'9111.4
2015-Feb-17 21:33N 40°31' E 001°13'1211.6
2015-Feb-17 20:33N 40°39' E 001°24'1111.3
2015-Feb-17 19:33N 40°47' E 001°35'3811.3
2015-Feb-17 16:13N 41°15' E 002°09'4 5.5
2015-Feb-17 15:31N 41°19' E 002°09'  

Dump ship's entire track history